Time;durP1;ratioP1;P1;durP2;ratioP2;P2;SDS_P1;SDS_P2;PMS_P1;PMS_P2;Temp;Humidity;BMP_temperature;BMP_pressure;BME280_temperature;BME280_humidity;BME280_pressure;Samples;Min_cycle;Max_cycle;Signal;HPM_P1;HPM_P2
2021/11/18 00:01:21;;;;;;;33.50;22.70;;;;;;;6.45;84.18;100764.54;88081;1288;79520;-71
2021/11/18 00:03:29;;;;;;;32.00;21.70;;;;;;;6.49;84.13;100754.16;88090;1285;80286;-72
2021/11/18 00:05:35;;;;;;;35.90;24.70;;;;;;;6.49;84.08;100762.22;88095;1288;99163;-70
2021/11/18 00:07:46;;;;;;;32.30;22.80;;;;;;;6.50;83.91;100762.09;88064;1288;88994;-72
2021/11/18 00:09:52;;;;;;;34.30;24.10;;;;;;;6.50;84.02;100765.17;88019;1285;94815;-70
2021/11/18 00:12:00;;;;;;;34.90;24.00;;;;;;;6.52;83.88;100765.27;88053;1290;79035;-67
2021/11/18 00:14:07;;;;;;;36.00;23.80;;;;;;;6.49;83.85;100768.80;88069;1284;82894;-67
2021/11/18 00:16:17;;;;;;;37.70;24.90;;;;;;;6.41;83.88;100769.27;88029;1287;99976;-66
2021/11/18 00:18:27;;;;;;;33.60;23.20;;;;;;;6.41;83.92;100774.13;88051;1285;88585;-67
2021/11/18 00:20:37;;;;;;;34.40;22.40;;;;;;;6.39;83.92;100778.46;88067;1291;93535;-67
2021/11/18 00:22:44;;;;;;;34.90;21.50;;;;;;;6.36;83.91;100771.95;88040;1285;80884;-67
2021/11/18 00:24:52;;;;;;;32.10;21.30;;;;;;;6.36;84.00;100770.30;88061;1288;81343;-67
2021/11/18 00:26:58;;;;;;;29.80;21.10;;;;;;;6.39;83.94;100775.23;88049;1285;99901;-67
2021/11/18 00:29:08;;;;;;;36.60;22.30;;;;;;;6.42;83.93;100770.67;88055;1288;88954;-66
2021/11/18 00:31:18;;;;;;;29.90;20.90;;;;;;;6.46;83.94;100774.13;88054;1285;95208;-72
2021/11/18 00:33:26;;;;;;;32.50;22.80;;;;;;;6.49;83.89;100770.10;87987;1284;78613;-71
2021/11/18 00:35:34;;;;;;;31.90;21.40;;;;;;;6.49;83.77;100768.80;88078;1288;81771;-67
2021/11/18 00:37:40;;;;;;;29.80;21.20;;;;;;;6.49;83.85;100768.12;88033;1291;97478;-66
2021/11/18 00:39:46;;;;;;;26.70;20.30;;;;;;;6.49;83.77;100769.03;88053;1290;88878;-68
2021/11/18 00:41:56;;;;;;;27.90;20.70;;;;;;;6.44;83.79;100767.17;88021;1287;94379;-71
2021/11/18 00:44:02;;;;;;;27.10;18.50;;;;;;;6.41;83.78;100768.23;88017;1287;78673;-72
2021/11/18 00:46:08;;;;;;;24.50;17.50;;;;;;;6.37;83.76;100767.93;88008;1294;82767;-67
2021/11/18 00:48:15;;;;;;;27.00;17.80;;;;;;;6.36;83.78;100766.56;87993;1287;100063;-67
2021/11/18 00:50:28;;;;;;;23.40;17.30;;;;;;;6.35;83.91;100768.46;88042;1292;88884;-72
2021/11/18 00:52:38;;;;;;;24.60;17.70;;;;;;;6.37;83.96;100770.95;88032;1289;95173;-72
2021/11/18 00:54:45;;;;;;;26.20;16.20;;;;;;;6.40;83.89;100774.73;88033;1287;79597;-72
2021/11/18 00:56:51;;;;;;;23.00;16.20;;;;;;;6.46;83.95;100778.42;88008;1288;80210;-66
2021/11/18 00:58:59;;;;;;;23.30;16.50;;;;;;;6.49;83.93;100778.52;88020;1288;100801;-66
2021/11/18 01:01:09;;;;;;;26.50;17.80;;;;;;;6.50;83.90;100777.36;88029;1287;88578;-72
2021/11/18 01:03:17;;;;;;;22.40;17.20;;;;;;;6.49;83.88;100779.59;88049;1288;95725;-72
2021/11/18 01:05:28;;;;;;;24.40;17.10;;;;;;;6.47;83.83;100773.50;88046;1284;77340;-71
2021/11/18 01:07:37;;;;;;;24.00;17.10;;;;;;;6.45;83.70;100767.88;88023;1290;82295;-72
2021/11/18 01:09:46;;;;;;;26.40;17.40;;;;;;;6.40;83.67;100764.18;87999;1287;98636;-72
2021/11/18 01:11:52;;;;;;;22.70;17.20;;;;;;;6.40;83.71;100762.52;87975;1287;88365;-67
2021/11/18 01:14:03;;;;;;;25.30;18.10;;;;;;;6.37;83.70;100770.02;88013;1285;94266;-67
2021/11/18 01:16:16;;;;;;;23.50;17.50;;;;;;;6.36;83.79;100769.84;87993;1291;80962;-67
2021/11/18 01:18:26;;;;;;;22.80;16.80;;;;;;;6.38;83.78;100776.38;88020;1294;81549;-67
2021/11/18 01:20:37;;;;;;;26.00;16.80;;;;;;;6.43;83.88;100779.98;88032;1293;100155;-66
2021/11/18 01:22:45;;;;;;;23.30;17.50;;;;;;;6.46;83.85;100775.44;88036;1288;88870;-69
2021/11/18 01:24:54;;;;;;;23.30;17.80;;;;;;;6.46;83.79;100770.42;88039;1287;95600;-66
2021/11/18 01:27:03;;;;;;;23.90;18.20;;;;;;;6.43;83.85;100772.52;87992;1288;78495;-71
2021/11/18 01:29:12;;;;;;;23.10;17.90;;;;;;;6.42;83.90;100768.86;88030;1293;82036;-71
2021/11/18 01:31:22;;;;;;;31.20;19.10;;;;;;;6.44;83.87;100768.95;88044;1287;100213;-71
2021/11/18 01:33:32;;;;;;;26.70;18.50;;;;;;;6.42;83.94;100771.13;88030;1289;87842;-71
2021/11/18 01:35:43;;;;;;;23.70;17.10;;;;;;;6.40;83.90;100775.45;88054;1288;94833;-70
2021/11/18 01:37:53;;;;;;;22.60;17.30;;;;;;;6.38;83.88;100775.14;88081;1287;81279;-70
2021/11/18 01:40:19;;;;;;;24.80;17.10;;;;;;;6.33;83.88;100780.35;88038;1288;83194;-71
2021/11/18 01:42:25;;;;;;;25.80;18.50;;;;;;;6.33;83.94;100779.98;88047;1288;98931;-71
2021/11/18 01:44:36;;;;;;;25.50;18.30;;;;;;;6.36;84.03;100781.23;88069;1288;88385;-71
2021/11/18 01:46:43;;;;;;;24.70;18.00;;;;;;;6.36;84.07;100783.94;88040;1285;94040;-71
2021/11/18 01:48:50;;;;;;;23.40;16.90;;;;;;;6.42;84.13;100786.05;88048;1287;80558;-71
2021/11/18 01:50:56;;;;;;;25.30;18.20;;;;;;;6.48;84.11;100790.55;88099;1288;81795;-71
2021/11/18 01:53:06;;;;;;;29.90;20.90;;;;;;;6.54;84.15;100785.34;88045;1291;100206;-71
2021/11/18 01:55:15;;;;;;;28.30;20.20;;;;;;;6.56;84.15;100785.15;88062;1288;89223;-66
2021/11/18 01:57:32;;;;;;;26.70;19.40;;;;;;;6.50;84.18;100785.03;88036;1289;93593;-65
2021/11/18 01:59:42;;;;;;;24.60;18.20;;;;;;;6.49;84.19;100791.20;88053;1291;78850;-65
2021/11/18 02:01:52;;;;;;;27.40;17.30;;;;;;;6.47;84.27;100790.11;88048;1291;83204;-71
2021/11/18 02:03:58;;;;;;;24.50;17.60;;;;;;;6.45;84.26;100790.59;88047;1287;100197;-70
2021/11/18 02:06:25;;;;;;;24.90;17.20;;;;;;;6.42;84.38;100790.84;88071;1291;87578;-71
2021/11/18 02:08:31;;;;;;;23.10;17.50;;;;;;;6.41;84.25;100792.57;88056;1291;93641;-71
2021/11/18 02:10:41;;;;;;;23.50;17.50;;;;;;;6.35;84.46;100795.83;88037;1289;80751;-69
2021/11/18 02:12:48;;;;;;;23.80;17.10;;;;;;;6.37;84.41;100799.27;88075;1288;83424;-71
2021/11/18 02:14:55;;;;;;;23.70;17.80;;;;;;;6.36;84.48;100801.30;88033;1283;96404;-71
2021/11/18 02:17:05;;;;;;;25.90;16.00;;;;;;;6.37;84.47;100804.20;88066;1285;87566;-66
2021/11/18 02:19:16;;;;;;;21.90;16.60;;;;;;;6.42;84.45;100807.88;88053;1290;94552;-66
2021/11/18 02:21:24;;;;;;;24.00;17.00;;;;;;;6.37;84.53;100802.45;88038;1288;81433;-72
2021/11/18 02:23:36;;;;;;;26.50;17.20;;;;;;;6.37;84.59;100797.63;88040;1289;81392;-70
2021/11/18 02:25:42;;;;;;;23.10;16.30;;;;;;;6.41;84.68;100804.02;88035;1291;98754;-66
2021/11/18 02:27:48;;;;;;;26.20;17.90;;;;;;;6.45;84.52;100808.08;88048;1289;87726;-67
2021/11/18 02:29:57;;;;;;;25.10;18.20;;;;;;;6.47;84.59;100809.64;88047;1291;94164;-65
2021/11/18 02:32:08;;;;;;;23.10;16.80;;;;;;;6.49;84.62;100805.30;88057;1284;78110;-66
2021/11/18 02:34:18;;;;;;;24.60;17.70;;;;;;;6.43;84.68;100804.70;88080;1292;80350;-66
2021/11/18 02:36:25;;;;;;;26.20;18.20;;;;;;;6.42;84.68;100805.29;88106;1288;97803;-65
2021/11/18 02:38:32;;;;;;;23.80;17.50;;;;;;;6.42;84.60;100809.60;88039;1291;87470;-66
2021/11/18 02:40:41;;;;;;;23.20;16.50;;;;;;;6.41;84.61;100799.35;88021;1289;95557;-66
2021/11/18 02:42:47;;;;;;;23.40;16.40;;;;;;;6.41;84.59;100795.73;88057;1286;81529;-66
2021/11/18 02:44:57;;;;;;;22.50;16.80;;;;;;;6.41;84.62;100797.33;88049;1285;81703;-66
2021/11/18 02:47:11;;;;;;;22.00;15.80;;;;;;;6.41;84.71;100795.73;88056;1285;98024;-66
2021/11/18 02:49:20;;;;;;;22.50;15.70;;;;;;;6.39;84.70;100795.80;88065;1291;87188;-66
2021/11/18 02:51:26;;;;;;;22.10;15.70;;;;;;;6.41;84.79;100799.91;88030;1291;92931;-66
2021/11/18 02:53:33;;;;;;;21.80;15.30;;;;;;;6.45;84.72;100807.20;88053;1291;81021;-66
2021/11/18 02:55:42;;;;;;;20.70;15.90;;;;;;;6.48;84.80;100808.06;88074;1288;82267;-69
2021/11/18 02:57:50;;;;;;;25.30;18.30;;;;;;;6.49;84.79;100807.34;88049;1289;97482;-69
2021/11/18 02:59:56;;;;;;;23.90;16.30;;;;;;;6.47;84.83;100808.45;88070;1291;88351;-69
2021/11/18 03:02:06;;;;;;;23.20;18.20;;;;;;;6.47;84.83;100805.71;88070;1291;94128;-70
2021/11/18 03:04:16;;;;;;;23.70;17.60;;;;;;;6.49;84.97;100805.86;88044;1287;78980;-69
2021/11/18 03:06:23;;;;;;;24.20;17.90;;;;;;;6.48;84.85;100805.64;88079;1285;79877;-66
2021/11/18 03:08:29;;;;;;;26.00;18.10;;;;;;;6.46;84.93;100806.17;88031;1291;98070;-66
2021/11/18 03:10:36;;;;;;;24.40;17.70;;;;;;;6.43;84.88;100808.42;88040;1294;88586;-70
2021/11/18 03:12:43;;;;;;;21.10;16.10;;;;;;;6.40;84.88;100807.31;88018;1282;94378;-70
2021/11/18 03:14:50;;;;;;;23.00;16.80;;;;;;;6.37;84.93;100805.88;88071;1291;79195;-70
2021/11/18 03:16:56;;;;;;;21.60;16.30;;;;;;;6.36;85.04;100808.98;88087;1285;80371;-71
2021/11/18 03:19:02;;;;;;;20.20;16.10;;;;;;;6.37;85.04;100809.60;88059;1291;98971;-71
2021/11/18 03:21:12;;;;;;;21.90;16.00;;;;;;;6.37;85.08;100809.45;88050;1281;87078;-70
2021/11/18 03:23:18;;;;;;;23.60;16.10;;;;;;;6.38;85.10;100815.05;88046;1283;94271;-71
2021/11/18 03:25:30;;;;;;;22.50;16.00;;;;;;;6.39;85.10;100815.29;88004;1288;81995;-71
2021/11/18 03:27:36;;;;;;;22.80;16.40;;;;;;;6.39;85.26;100820.69;88015;1293;83090;-70
2021/11/18 03:29:42;;;;;;;22.70;15.90;;;;;;;6.41;85.15;100821.95;88067;1282;98998;-71
2021/11/18 03:31:52;;;;;;;21.50;15.50;;;;;;;6.44;85.17;100821.27;88041;1285;89415;-71
2021/11/18 03:34:02;;;;;;;21.20;15.60;;;;;;;6.47;85.10;100823.95;88049;1285;94984;-71
2021/11/18 03:36:10;;;;;;;23.10;16.10;;;;;;;6.44;85.20;100824.60;88070;1291;82716;-70
2021/11/18 03:38:17;;;;;;;24.30;16.70;;;;;;;6.48;85.09;100826.02;88055;1288;81381;-70
2021/11/18 03:40:25;;;;;;;24.30;15.80;;;;;;;6.46;85.06;100821.20;88088;1285;98657;-67
2021/11/18 03:42:31;;;;;;;23.70;15.10;;;;;;;6.48;85.05;100822.42;88039;1291;88852;-67
2021/11/18 03:44:38;;;;;;;22.80;16.20;;;;;;;6.48;85.03;100823.63;88018;1291;94912;-66
2021/11/18 03:46:50;;;;;;;23.50;17.30;;;;;;;6.49;85.15;100825.55;88075;1284;78864;-66
2021/11/18 03:48:57;;;;;;;23.60;16.20;;;;;;;6.52;85.04;100824.16;88063;1291;82487;-66
2021/11/18 03:51:04;;;;;;;25.40;18.00;;;;;;;6.54;84.94;100819.45;88038;1285;100094;-70
2021/11/18 03:53:11;;;;;;;25.00;17.60;;;;;;;6.54;84.91;100824.48;88057;1284;87718;-70
2021/11/18 03:55:21;;;;;;;23.90;17.60;;;;;;;6.46;84.92;100829.80;88063;1285;95797;-70
2021/11/18 03:57:27;;;;;;;25.10;17.20;;;;;;;6.41;84.89;100832.64;88071;1291;79329;-70
2021/11/18 03:59:39;;;;;;;24.80;16.60;;;;;;;6.41;84.88;100834.73;88067;1288;81441;-70
2021/11/18 04:01:46;;;;;;;24.00;16.70;;;;;;;6.43;84.93;100834.01;88026;1285;99897;-70
2021/11/18 04:03:55;;;;;;;21.10;16.00;;;;;;;6.44;84.91;100831.97;88089;1291;89207;-71
2021/11/18 04:06:02;;;;;;;21.90;16.10;;;;;;;6.45;84.96;100832.77;88041;1289;95393;-66
2021/11/18 04:08:09;;;;;;;22.90;16.60;;;;;;;6.44;84.98;100832.99;88047;1285;82642;-66
2021/11/18 04:10:18;;;;;;;27.40;17.10;;;;;;;6.49;85.09;100832.53;88073;1285;82699;-70
2021/11/18 04:12:27;;;;;;;22.30;17.10;;;;;;;6.51;85.08;100836.81;88055;1285;100187;-70
2021/11/18 04:14:38;;;;;;;26.20;18.30;;;;;;;6.52;85.01;100843.14;88055;1288;88928;-71
2021/11/18 04:16:45;;;;;;;28.90;19.40;;;;;;;6.50;85.01;100837.58;87990;1291;95555;-70
2021/11/18 04:18:51;;;;;;;27.60;17.40;;;;;;;6.50;84.92;100837.47;88015;1285;80738;-70
2021/11/18 04:20:57;;;;;;;23.10;17.50;;;;;;;6.50;85.03;100839.08;88032;1285;82431;-72
2021/11/18 04:23:04;;;;;;;24.20;16.90;;;;;;;6.49;84.93;100837.38;88053;1291;99712;-71
2021/11/18 04:25:15;;;;;;;25.00;16.70;;;;;;;6.49;84.96;100837.52;88036;1285;88725;-69
2021/11/18 04:27:21;;;;;;;23.10;15.20;;;;;;;6.49;84.98;100840.95;88037;1288;95495;-67
2021/11/18 04:29:28;;;;;;;25.40;17.00;;;;;;;6.50;84.97;100843.02;88061;1284;78912;-67
2021/11/18 04:31:34;;;;;;;24.90;17.00;;;;;;;6.51;85.00;100842.38;88079;1287;81100;-67
2021/11/18 04:33:40;;;;;;;23.30;16.10;;;;;;;6.55;84.93;100841.64;88070;1291;98523;-67
2021/11/18 04:35:46;;;;;;;26.50;17.80;;;;;;;6.58;84.89;100840.44;88087;1290;87280;-71
2021/11/18 04:37:52;;;;;;;25.10;17.40;;;;;;;6.61;84.86;100841.44;88047;1288;93478;-71
2021/11/18 04:40:02;;;;;;;26.20;19.20;;;;;;;6.61;84.89;100843.73;87944;1289;79767;-72
2021/11/18 04:42:09;;;;;;;28.60;18.90;;;;;;;6.60;84.82;100845.92;88076;1291;82444;-67
2021/11/18 04:44:16;;;;;;;26.90;18.80;;;;;;;6.60;84.76;100845.09;88045;1285;99558;-67
2021/11/18 04:46:22;;;;;;;28.30;17.50;;;;;;;6.55;84.68;100840.57;88078;1284;87584;-68
2021/11/18 04:48:30;;;;;;;25.30;16.80;;;;;;;6.52;84.74;100843.10;88039;1285;95613;-68
2021/11/18 04:50:37;;;;;;;26.80;16.60;;;;;;;6.51;84.83;100850.59;88060;1285;80068;-71
2021/11/18 04:52:44;;;;;;;25.10;17.50;;;;;;;6.53;84.79;100856.86;88062;1285;82517;-71
2021/11/18 04:54:50;;;;;;;25.00;16.90;;;;;;;6.54;84.86;100860.29;88024;1285;98664;-72
2021/11/18 04:56:56;;;;;;;25.70;17.10;;;;;;;6.58;84.92;100862.81;88064;1285;88806;-67
2021/11/18 04:59:02;;;;;;;25.50;17.30;;;;;;;6.62;84.92;100863.52;88033;1287;92424;-67
2021/11/18 05:01:14;;;;;;;25.60;18.10;;;;;;;6.68;84.85;100864.32;88049;1285;81136;-71
2021/11/18 05:03:23;;;;;;;32.20;19.50;;;;;;;6.70;84.81;100859.96;88065;1285;85036;-70
2021/11/18 05:05:30;;;;;;;30.80;19.50;;;;;;;6.69;84.84;100860.64;88058;1285;97730;-67
2021/11/18 05:07:37;;;;;;;31.00;20.00;;;;;;;6.68;84.80;100863.41;88055;1291;88955;-67
2021/11/18 05:09:43;;;;;;;30.40;19.30;;;;;;;6.66;84.73;100861.13;88000;1284;92157;-67
2021/11/18 05:11:51;;;;;;;29.30;18.70;;;;;;;6.63;84.67;100861.41;88067;1288;82123;-71
2021/11/18 05:13:58;;;;;;;25.60;17.80;;;;;;;6.60;84.64;100857.55;88093;1285;79973;-70
2021/11/18 05:16:12;;;;;;;26.30;18.20;;;;;;;6.60;84.68;100860.65;88065;1285;99644;-67
2021/11/18 05:18:19;;;;;;;27.80;17.90;;;;;;;6.61;84.70;100855.92;88051;1284;85859;-66
2021/11/18 05:20:29;;;;;;;27.10;17.90;;;;;;;6.63;84.69;100855.27;88051;1285;94296;-71
2021/11/18 05:22:35;;;;;;;27.70;18.50;;;;;;;6.65;84.65;100859.80;88075;1284;79770;-69
2021/11/18 05:24:44;;;;;;;32.90;20.10;;;;;;;6.66;84.62;100856.48;88057;1288;82499;-69
2021/11/18 05:26:53;;;;;;;28.10;19.70;;;;;;;6.66;84.78;100860.91;88042;1287;98832;-69
2021/11/18 05:28:59;;;;;;;30.90;19.60;;;;;;;6.69;84.73;100861.38;88012;1289;89208;-69
2021/11/18 05:31:06;;;;;;;29.20;20.20;;;;;;;6.66;84.67;100861.45;88038;1288;95742;-69
2021/11/18 05:33:18;;;;;;;32.40;19.70;;;;;;;6.66;84.75;100867.75;88047;1294;79454;-70
2021/11/18 05:35:27;;;;;;;29.00;19.10;;;;;;;6.65;84.74;100867.11;88078;1288;80738;-66
2021/11/18 05:37:37;;;;;;;30.50;19.70;;;;;;;6.65;84.64;100862.65;88043;1284;96894;-66
2021/11/18 05:39:43;;;;;;;30.80;19.30;;;;;;;6.67;84.80;100867.83;88015;1285;87020;-66
2021/11/18 05:41:53;;;;;;;29.50;19.50;;;;;;;6.68;84.73;100873.58;88013;1288;95755;-66
2021/11/18 05:44:04;;;;;;;32.40;20.30;;;;;;;6.66;84.83;100876.15;87919;1289;81861;-66
2021/11/18 05:46:44;;;;;;;29.90;19.50;;;;;;;6.66;84.83;100876.69;88070;1288;82356;-66
2021/11/18 05:49:15;;;;;;;;;;;;;;;6.70;84.90;100876.47;87876;1289;97303;-67
2021/11/18 05:52:02;;;;;;;31.50;21.10;;;;;;;6.71;85.03;100874.05;87876;1285;88872;-71
2021/11/18 05:54:32;;;;;;;29.90;20.70;;;;;;;6.74;85.06;100875.17;87903;1294;95411;-72
2021/11/18 05:57:02;;;;;;;30.40;21.30;;;;;;;6.72;85.01;100882.68;87915;1288;80364;-73
2021/11/18 05:59:21;;;;;;;32.60;20.60;;;;;;;6.70;84.97;100879.68;87955;1287;81864;-71
2021/11/18 06:01:43;;;;;;;32.00;21.00;;;;;;;6.67;85.11;100883.34;87931;1294;98008;-71
2021/11/18 06:04:12;;;;;;;29.80;20.40;;;;;;;6.67;84.97;100881.20;88043;1291;86970;-72
2021/11/18 06:06:41;;;;;;;30.40;21.90;;;;;;;6.68;85.09;100888.50;88053;1288;94824;-69
2021/11/18 06:09:07;;;;;;;28.00;20.30;;;;;;;6.66;85.09;100890.48;87892;1288;81352;-68
2021/11/18 06:11:19;;;;;;;29.70;19.70;;;;;;;6.65;85.15;100886.98;88097;1286;81029;-66
2021/11/18 06:13:25;;;;;;;26.20;19.00;;;;;;;6.63;85.18;100885.61;87711;1281;454695;-65
2021/11/18 06:15:32;;;;;;;29.60;19.50;;;;;;;6.62;85.26;100885.91;88119;1285;87626;-70
2021/11/18 06:17:41;;;;;;;26.80;19.70;;;;;;;6.63;85.24;100890.44;88087;1285;95418;-70
2021/11/18 06:19:47;;;;;;;28.40;18.70;;;;;;;6.63;85.38;100894.16;88109;1288;81648;-70
2021/11/18 06:21:57;;;;;;;25.80;19.20;;;;;;;6.68;85.35;100894.05;88145;1285;83373;-71
2021/11/18 06:24:07;;;;;;;29.50;19.90;;;;;;;6.70;85.40;100892.75;88125;1285;99301;-72
2021/11/18 06:26:14;;;;;;;29.20;19.10;;;;;;;6.72;85.32;100899.34;88120;1285;88363;-71
2021/11/18 06:28:23;;;;;;;27.70;19.90;;;;;;;6.73;85.40;100899.44;88131;1285;95587;-70
2021/11/18 06:30:33;;;;;;;31.50;20.80;;;;;;;6.74;85.30;100897.64;88106;1285;78847;-71
2021/11/18 06:32:40;;;;;;;27.70;20.10;;;;;;;6.77;85.33;100898.84;88104;1288;83127;-70
2021/11/18 06:34:50;;;;;;;28.80;21.10;;;;;;;6.74;85.38;100896.02;88129;1285;99712;-71
2021/11/18 06:36:56;;;;;;;30.50;20.40;;;;;;;6.76;85.36;100894.63;88146;1285;87389;-70
2021/11/18 06:39:03;;;;;;;26.30;20.10;;;;;;;6.74;85.27;100898.80;88104;1291;95276;-71
2021/11/18 06:41:11;;;;;;;29.50;19.60;;;;;;;6.72;85.40;100900.74;88125;1277;79567;-70
2021/11/18 06:43:18;;;;;;;27.10;19.10;;;;;;;6.72;85.40;100905.01;88120;1285;82014;-71
2021/11/18 06:45:31;;;;;;;30.40;19.60;;;;;;;6.72;85.39;100909.88;88115;1291;99505;-66
2021/11/18 06:47:39;;;;;;;31.80;19.50;;;;;;;6.76;85.46;100908.23;88090;1288;88649;-66
2021/11/18 06:49:46;;;;;;;28.60;19.40;;;;;;;6.80;85.51;100911.77;88078;1285;93716;-66
2021/11/18 06:51:52;;;;;;;29.70;20.80;;;;;;;6.81;85.56;100915.94;88075;1282;78269;-66
2021/11/18 06:54:01;;;;;;;29.40;20.80;;;;;;;6.83;85.49;100915.36;88140;1285;80656;-66
2021/11/18 06:56:09;;;;;;;25.60;19.10;;;;;;;6.84;85.45;100911.57;88134;1285;100450;-70
2021/11/18 06:58:18;;;;;;;26.00;20.10;;;;;;;6.84;85.49;100914.00;88120;1289;87811;-71
2021/11/18 07:00:24;;;;;;;29.30;18.80;;;;;;;6.85;85.45;100918.23;88101;1278;93486;-66
2021/11/18 07:02:33;;;;;;;30.00;19.70;;;;;;;6.81;85.41;100911.11;88115;1285;79742;-66
2021/11/18 07:04:40;;;;;;;28.70;19.40;;;;;;;6.72;85.60;100917.25;87978;1287;82249;-66
2021/11/18 07:06:46;;;;;;;28.20;20.10;;;;;;;6.70;85.58;100918.34;88121;1285;99243;-66
2021/11/18 07:08:56;;;;;;;25.30;18.90;;;;;;;6.72;85.70;100911.88;88128;1285;89097;-66
2021/11/18 07:11:07;;;;;;;29.90;21.60;;;;;;;6.73;85.69;100906.42;88161;1285;95779;-71
2021/11/18 07:13:17;;;;;;;28.80;18.40;;;;;;;6.76;85.66;100914.67;88103;1287;80288;-72
2021/11/18 07:15:26;;;;;;;32.90;19.00;;;;;;;6.77;85.76;100919.21;88020;1287;81410;-67
2021/11/18 07:17:32;;;;;;;27.50;19.10;;;;;;;6.80;85.75;100913.94;88100;1285;98785;-70
2021/11/18 07:19:38;;;;;;;26.00;19.40;;;;;;;6.86;85.67;100910.82;88121;1283;89664;-67
2021/11/18 07:21:45;;;;;;;27.20;19.60;;;;;;;6.89;85.75;100908.73;88109;1285;95711;-67
2021/11/18 07:23:52;;;;;;;30.70;20.40;;;;;;;6.91;85.74;100909.54;87991;1288;78468;-68
2021/11/18 07:26:01;;;;;;;27.40;19.90;;;;;;;6.94;85.70;100913.05;88125;1285;82742;-71
2021/11/18 07:28:08;;;;;;;29.90;19.60;;;;;;;6.95;85.62;100914.88;88108;1285;100044;-71
2021/11/18 07:30:20;;;;;;;24.80;18.50;;;;;;;6.94;85.55;100917.71;88129;1291;87685;-71
2021/11/18 07:32:26;;;;;;;28.50;18.70;;;;;;;6.94;85.64;100914.46;88034;1283;92586;-71
2021/11/18 07:34:32;;;;;;;27.90;18.90;;;;;;;6.93;85.58;100924.27;88085;1285;82764;-72
2021/11/18 07:36:38;;;;;;;57.50;36.60;;;;;;;6.89;85.67;100913.70;88128;1289;82478;-67
2021/11/18 07:38:45;;;;;;;30.50;21.60;;;;;;;6.95;85.69;100920.68;88108;1283;100193;-68
2021/11/18 07:40:52;;;;;;;29.20;20.80;;;;;;;6.96;85.77;100918.90;88132;1285;87576;-68
2021/11/18 07:42:58;;;;;;;23.10;18.50;;;;;;;6.98;85.68;100926.08;88122;1285;95815;-68
2021/11/18 07:45:12;;;;;;;26.50;19.40;;;;;;;7.04;85.70;100924.70;88056;1285;78272;-67
2021/11/18 07:47:18;;;;;;;27.80;21.50;;;;;;;7.09;85.58;100927.64;88160;1285;83824;-71
2021/11/18 07:49:25;;;;;;;27.90;19.30;;;;;;;7.09;85.60;100927.73;88123;1288;100266;-72
2021/11/18 07:51:30;;;;;;;25.20;19.70;;;;;;;7.09;85.35;100926.21;88118;1285;88795;-71
2021/11/18 07:53:37;;;;;;;27.00;18.90;;;;;;;7.04;85.51;100924.67;88095;1285;94364;-71
2021/11/18 07:55:44;;;;;;;27.90;18.50;;;;;;;7.07;85.52;100926.58;88119;1285;81781;-71
2021/11/18 07:57:50;;;;;;;25.00;17.40;;;;;;;7.06;85.46;100929.90;88139;1285;82596;-72
2021/11/18 07:59:56;;;;;;;25.20;18.00;;;;;;;7.06;85.52;100929.13;88115;1288;99638;-72
2021/11/18 08:02:06;;;;;;;25.10;17.50;;;;;;;7.07;85.55;100929.77;88109;1281;86647;-72
2021/11/18 08:04:16;;;;;;;25.80;17.30;;;;;;;7.11;85.53;100930.05;88095;1285;94096;-72
2021/11/18 08:06:26;;;;;;;27.50;18.30;;;;;;;7.14;85.55;100929.25;88150;1289;78939;-68
2021/11/18 08:08:35;;;;;;;27.50;17.50;;;;;;;7.17;85.50;100938.14;88108;1282;82498;-71
2021/11/18 08:10:45;;;;;;;24.50;17.10;;;;;;;7.21;85.55;100940.23;88028;1288;98274;-72
2021/11/18 08:12:50;;;;;;;24.90;17.20;;;;;;;7.23;85.41;100938.72;88127;1281;87959;-72
2021/11/18 08:15:00;;;;;;;23.70;17.60;;;;;;;7.24;85.40;100938.84;88097;1285;95109;-72
2021/11/18 08:17:09;;;;;;;25.50;17.20;;;;;;;7.23;85.49;100946.63;88095;1285;78001;-73
2021/11/18 08:19:18;;;;;;;25.20;19.20;;;;;;;7.28;85.39;100946.46;88105;1288;80364;-73
2021/11/18 08:21:26;;;;;;;26.90;18.40;;;;;;;7.29;85.25;100944.63;88017;1287;98671;-72
2021/11/18 08:23:33;;;;;;;25.40;17.00;;;;;;;7.26;85.31;100952.59;88027;1291;89474;-72
2021/11/18 08:25:44;;;;;;;24.90;16.60;;;;;;;7.23;85.12;100953.58;88044;1277;93963;-72
2021/11/18 08:27:54;;;;;;;22.30;15.60;;;;;;;7.23;85.25;100953.23;88050;1287;80807;-71
2021/11/18 08:30:05;;;;;;;28.90;16.70;;;;;;;7.22;85.38;100957.69;88142;1282;83615;-69
2021/11/18 08:32:12;;;;;;;23.90;15.40;;;;;;;7.24;85.28;100959.23;88140;1285;100186;-72
2021/11/18 08:34:25;;;;;;;26.50;17.50;;;;;;;7.27;85.46;100955.15;88090;1283;86252;-72
2021/11/18 08:36:37;;;;;;;22.50;17.00;;;;;;;7.38;85.44;100964.43;88119;1285;94986;-72
2021/11/18 08:38:44;;;;;;;26.30;18.00;;;;;;;7.49;85.50;100967.09;88033;1282;78283;-73
2021/11/18 08:40:54;;;;;;;23.10;16.80;;;;;;;7.57;85.42;100971.07;88157;1280;81081;-68
2021/11/18 08:43:00;;;;;;;23.10;16.30;;;;;;;7.66;85.35;100976.55;88126;1285;99486;-73
2021/11/18 08:45:12;;;;;;;23.70;17.30;;;;;;;7.77;85.38;100981.38;88130;1281;89112;-73
2021/11/18 08:47:22;;;;;;;25.80;17.50;;;;;;;7.86;85.32;100981.60;88113;1285;95495;-72
2021/11/18 08:49:29;;;;;;;30.00;18.10;;;;;;;7.88;85.17;100980.98;88115;1285;79078;-72
2021/11/18 08:51:36;;;;;;;29.40;17.80;;;;;;;7.91;85.15;100983.36;88115;1285;82697;-68
2021/11/18 08:53:46;;;;;;;27.40;17.40;;;;;;;7.96;84.94;100976.70;88119;1282;99255;-68
2021/11/18 08:55:53;;;;;;;23.90;14.60;;;;;;;8.02;84.87;100973.44;88151;1285;88907;-68
2021/11/18 08:57:59;;;;;;;23.00;14.50;;;;;;;8.12;84.86;100972.72;88148;1285;94305;-73
2021/11/18 09:00:13;;;;;;;20.40;14.00;;;;;;;8.30;84.93;100974.77;88144;1280;77917;-73
2021/11/18 09:02:27;;;;;;;19.60;14.80;;;;;;;8.53;84.65;100972.69;88062;1288;83232;-68
2021/11/18 09:04:33;;;;;;;22.20;15.50;;;;;;;8.83;84.68;100974.09;88136;1281;96930;-68
2021/11/18 09:06:42;;;;;;;23.90;15.10;;;;;;;9.14;84.73;100974.11;88051;1288;89536;-69
2021/11/18 09:08:48;;;;;;;20.70;14.40;;;;;;;9.44;84.32;100968.65;88136;1280;92622;-68
2021/11/18 09:10:54;;;;;;;22.10;14.80;;;;;;;9.54;83.98;100969.00;88083;1288;79626;-68
2021/11/18 09:13:01;;;;;;;21.70;14.50;;;;;;;9.50;83.63;100974.52;88130;1282;82416;-68
2021/11/18 09:15:15;;;;;;;19.00;13.00;;;;;;;9.35;83.31;100974.74;88089;1285;98141;-70
2021/11/18 09:17:20;;;;;;;;;;;;;;;9.16;83.25;100971.79;88102;1285;87486;-72
2021/11/18 09:19:38;;;;;;;19.50;13.60;;;;;;;8.98;82.96;100970.21;88139;1285;95139;-73
2021/11/18 09:21:47;;;;;;;18.00;11.80;;;;;;;8.79;82.92;100976.86;88140;1285;81999;-72
2021/11/18 09:24:02;;;;;;;20.00;12.40;;;;;;;8.61;82.82;100979.91;88080;1288;81982;-70
2021/11/18 09:26:10;;;;;;;17.80;11.90;;;;;;;8.43;82.79;100978.61;88080;1282;97711;-72
2021/11/18 09:28:18;;;;;;;20.20;13.10;;;;;;;8.38;82.86;100980.16;88124;1281;87374;-73
2021/11/18 09:30:32;;;;;;;19.60;11.00;;;;;;;8.35;82.74;100980.89;88071;1289;95745;-72
2021/11/18 09:32:38;;;;;;;21.80;12.20;;;;;;;8.32;82.84;100981.96;88140;1281;77674;-73
2021/11/18 09:34:45;;;;;;;21.70;12.70;;;;;;;8.32;82.90;100974.25;88123;1285;80507;-72
2021/11/18 09:36:52;;;;;;;17.70;12.40;;;;;;;8.34;82.88;100979.91;88165;1285;99009;-70
2021/11/18 09:39:01;;;;;;;17.80;11.60;;;;;;;8.33;82.80;100976.44;88161;1285;87080;-72
2021/11/18 09:41:35;;;;;;;20.00;12.50;;;;;;;8.27;82.72;100975.45;88113;1281;95257;-71
2021/11/18 09:44:23;;;;;;;16.90;12.30;;;;;;;8.14;82.68;100974.31;88100;1285;78753;-72
2021/11/18 09:47:02;;;;;;;15.30;11.80;;;;;;;8.07;82.79;100970.69;88157;1285;80658;-72
2021/11/18 09:49:43;;;;;;;18.20;11.50;;;;;;;8.09;82.80;100974.65;88110;1281;97818;-72
2021/11/18 09:52:05;;;;;;;17.50;10.40;;;;;;;8.09;82.78;100975.14;88158;1282;87946;-72
2021/11/18 09:54:44;;;;;;;20.40;13.20;;;;;;;8.13;82.67;100973.50;88104;1285;95639;-72
2021/11/18 09:57:23;;;;;;;18.20;12.10;;;;;;;8.16;82.63;100971.34;88151;1281;81011;-68